createdAt,value
2022-09-15T00:03:40.895Z,81.60
2022-09-15T00:11:48.946Z,82.30
2022-09-15T00:19:54.397Z,82.40
2022-09-15T00:28:02.451Z,82.40
2022-09-15T00:36:10.358Z,83.20
2022-09-15T00:44:45.618Z,82.80
2022-09-15T00:52:57.322Z,82.00
2022-09-15T01:01:04.663Z,81.60
2022-09-15T01:09:18.520Z,82.30
2022-09-15T01:17:32.926Z,82.00
2022-09-15T01:26:05.658Z,81.80
2022-09-15T01:34:20.630Z,82.30
2022-09-15T01:42:28.429Z,82.40
2022-09-15T01:50:40.555Z,81.90
2022-09-15T01:58:46.034Z,82.10
2022-09-15T02:06:58.377Z,83.40
2022-09-15T02:15:08.805Z,84.20
2022-09-15T02:23:22.904Z,83.70
2022-09-15T02:31:30.174Z,83.70
2022-09-15T02:39:43.097Z,83.30
2022-09-15T02:47:49.666Z,83.30
2022-09-15T02:55:58.151Z,83.00
2022-09-15T03:04:04.804Z,82.70
2022-09-15T03:12:12.831Z,82.70
2022-09-15T03:20:22.674Z,83.20
2022-09-15T03:28:31.291Z,83.20
2022-09-15T03:36:36.877Z,83.60
2022-09-15T03:44:44.699Z,84.70
2022-09-15T03:52:49.978Z,84.40
2022-09-15T04:00:58.214Z,84.80
2022-09-15T04:09:03.563Z,84.70
2022-09-15T04:17:11.767Z,84.90
2022-09-15T04:25:17.201Z,85.00
2022-09-15T04:33:25.334Z,84.80
2022-09-15T04:41:31.392Z,84.70
2022-09-15T04:49:39.289Z,85.60
2022-09-15T04:57:44.580Z,85.00
2022-09-15T05:05:53.057Z,85.30
2022-09-15T05:13:58.285Z,84.60
2022-09-15T05:22:06.278Z,85.20
2022-09-15T05:38:41.791Z,85.10
2022-09-15T05:46:48.337Z,86.00
2022-09-15T05:54:59.189Z,86.60
2022-09-15T06:03:04.906Z,86.80
2022-09-15T06:11:15.717Z,87.90
2022-09-15T06:19:21.166Z,87.40
2022-09-15T06:27:29.287Z,87.10
2022-09-15T06:35:35.597Z,91.10
2022-09-15T06:43:43.764Z,90.10
2022-09-15T06:51:49.203Z,89.50
2022-09-15T06:59:57.090Z,88.20
2022-09-15T07:08:02.445Z,86.90
2022-09-15T07:16:12.830Z,85.30
2022-09-15T07:24:18.351Z,84.90
2022-09-15T07:32:26.307Z,84.70
2022-09-15T07:40:31.986Z,84.60
2022-09-15T07:48:39.918Z,83.90
2022-09-15T07:56:45.214Z,83.10
2022-09-15T08:04:53.270Z,83.20
2022-09-15T08:12:58.586Z,83.10
2022-09-15T08:21:07.794Z,80.40
2022-09-15T08:29:13.671Z,77.50
2022-09-15T08:37:22.289Z,74.90
2022-09-15T08:45:31.713Z,74.20
2022-09-15T08:53:46.104Z,74.20
2022-09-15T09:02:04.149Z,73.80
2022-09-15T09:10:18.369Z,74.40
2022-09-15T09:18:47.051Z,73.80
2022-09-15T09:26:58.655Z,73.90
2022-09-15T09:35:08.112Z,74.40
2022-09-15T09:43:16.097Z,74.90
2022-09-15T09:51:39.951Z,74.70
2022-09-15T09:59:49.537Z,74.70
2022-09-15T10:07:54.894Z,73.90
2022-09-15T10:16:05.236Z,73.20
2022-09-15T10:24:34.404Z,74.00
2022-09-15T10:32:43.405Z,74.40
2022-09-15T10:40:54.859Z,75.00
2022-09-15T10:49:16.392Z,70.80
2022-09-15T10:57:41.478Z,68.80
2022-09-15T11:06:04.158Z,70.10
2022-09-15T11:14:23.908Z,69.40
2022-09-15T11:22:37.607Z,61.80
2022-09-15T11:30:49.310Z,55.90
2022-09-15T11:39:02.582Z,57.80
2022-09-15T11:47:22.974Z,51.80
2022-09-15T11:55:37.346Z,45.20
2022-09-15T12:03:50.787Z,41.40
2022-09-15T12:12:04.554Z,37.70
2022-09-15T12:20:19.345Z,38.80
2022-09-15T12:28:42.577Z,44.40
2022-09-15T12:36:51.296Z,49.60
2022-09-15T12:45:01.152Z,53.60
2022-09-15T12:53:15.480Z,55.60
2022-09-15T13:01:53.758Z,57.90
2022-09-15T13:10:18.910Z,59.50
2022-09-15T13:18:28.167Z,61.50
2022-09-15T13:26:34.886Z,63.70
2022-09-15T13:35:22.611Z,66.10
2022-09-15T13:43:45.529Z,69.50
2022-09-15T13:52:02.485Z,68.40
2022-09-15T14:00:15.719Z,69.30
2022-09-15T14:08:30.433Z,68.20
2022-09-15T14:16:40.169Z,65.20
2022-09-15T14:24:49.126Z,63.80
2022-09-15T14:32:57.139Z,64.50
2022-09-15T14:41:05.547Z,65.00
2022-09-15T14:49:14.678Z,65.00
2022-09-15T14:57:30.776Z,65.90
2022-09-15T15:05:40.806Z,66.30
2022-09-15T15:13:53.204Z,66.70
2022-09-15T15:22:09.091Z,67.10
2022-09-15T15:30:48.552Z,67.60
2022-09-15T15:38:56.551Z,68.00
2022-09-15T15:47:25.722Z,69.20
2022-09-15T15:55:39.758Z,70.90
2022-09-15T16:03:47.752Z,70.40
2022-09-15T16:20:05.014Z,70.40
2022-09-15T16:28:10.318Z,71.60
2022-09-15T16:36:24.001Z,71.20
2022-09-15T16:44:29.361Z,71.40
2022-09-15T16:52:42.672Z,72.20
2022-09-15T17:00:49.418Z,75.00
2022-09-15T17:08:57.802Z,75.40
2022-09-15T17:17:03.333Z,76.90
2022-09-15T17:25:37.307Z,77.00
2022-09-15T17:33:43.159Z,77.50
2022-09-15T17:41:51.372Z,77.80
2022-09-15T17:49:56.919Z,78.30
2022-09-15T17:58:06.350Z,78.90
2022-09-15T18:06:13.483Z,79.20
2022-09-15T18:14:21.716Z,80.00
2022-09-15T18:22:29.780Z,80.10
2022-09-15T18:30:43.554Z,80.30
2022-09-15T18:38:48.953Z,80.80
2022-09-15T18:46:57.085Z,80.80
2022-09-15T18:55:02.494Z,80.60
2022-09-15T19:03:11.709Z,80.60
2022-09-15T19:11:17.443Z,81.20
2022-09-15T19:19:26.156Z,81.60
2022-09-15T19:27:33.564Z,81.70
2022-09-15T19:35:44.547Z,82.80
2022-09-15T19:43:49.861Z,83.60
2022-09-15T19:51:58.055Z,83.40
2022-09-15T20:00:03.410Z,83.70
2022-09-15T20:08:12.298Z,84.00
2022-09-15T20:16:19.884Z,84.40
2022-09-15T20:24:28.104Z,85.00
2022-09-15T20:32:34.646Z,85.00
2022-09-15T20:40:42.590Z,85.00
2022-09-15T20:48:48.742Z,85.20
2022-09-15T20:56:57.092Z,84.80
2022-09-15T21:05:02.357Z,84.30
2022-09-15T21:13:10.454Z,84.40
2022-09-15T21:21:17.389Z,84.50
2022-09-15T21:29:25.404Z,84.10
2022-09-15T21:37:32.145Z,82.50
2022-09-15T21:45:40.145Z,81.50
2022-09-15T21:53:46.155Z,80.50
2022-09-15T22:01:54.466Z,79.80
2022-09-15T22:09:59.738Z,80.00
2022-09-15T22:18:09.738Z,77.80
2022-09-15T22:26:18.159Z,78.00
2022-09-15T22:34:26.145Z,77.30
2022-09-15T22:42:31.508Z,77.00
2022-09-15T22:50:39.561Z,76.70
2022-09-15T22:58:46.657Z,77.40
2022-09-15T23:06:54.574Z,79.30
2022-09-15T23:15:04.021Z,80.30
2022-09-15T23:23:12.077Z,80.80
2022-09-15T23:31:18.203Z,81.00
2022-09-15T23:39:26.807Z,81.60
2022-09-15T23:47:32.153Z,81.80
2022-09-15T23:55:40.364Z,82.20
